createdAt,value
2022-07-25T00:01:20.638Z,25.50
2022-07-25T00:03:48.696Z,25.50
2022-07-25T00:06:17.818Z,25.40
2022-07-25T00:08:47.288Z,25.50
2022-07-25T00:11:15.128Z,25.40
2022-07-25T00:13:42.952Z,25.50
2022-07-25T00:16:10.815Z,25.50
2022-07-25T00:18:38.703Z,25.40
2022-07-25T00:21:06.889Z,25.50
2022-07-25T00:23:34.672Z,25.50
2022-07-25T00:26:03.811Z,25.50
2022-07-25T00:28:31.566Z,25.50
2022-07-25T00:30:59.531Z,25.50
2022-07-25T00:33:27.376Z,25.40
2022-07-25T00:35:55.224Z,25.40
2022-07-25T00:38:23.013Z,25.50
2022-07-25T00:40:55.590Z,25.50
2022-07-25T00:43:25.029Z,25.50
2022-07-25T00:45:52.800Z,25.50
2022-07-25T00:48:20.950Z,25.20
2022-07-25T00:50:48.861Z,25.00
2022-07-25T00:53:17.011Z,25.00
2022-07-25T00:55:44.872Z,25.20
2022-07-25T00:58:12.734Z,25.10
2022-07-25T01:00:42.994Z,25.00
2022-07-25T01:03:10.950Z,24.80
2022-07-25T01:05:38.894Z,24.80
2022-07-25T01:08:07.471Z,24.70
2022-07-25T01:10:36.075Z,24.70
2022-07-25T01:13:03.913Z,24.70
2022-07-25T01:15:31.962Z,24.50
2022-07-25T01:18:01.209Z,24.40
2022-07-25T01:20:32.150Z,24.30
2022-07-25T01:23:01.082Z,24.00
2022-07-25T01:25:29.721Z,24.00
2022-07-25T01:27:57.824Z,24.00
2022-07-25T01:30:26.739Z,23.90
2022-07-25T01:32:54.716Z,24.00
2022-07-25T01:35:22.484Z,23.80
2022-07-25T01:37:51.769Z,24.00
2022-07-25T01:40:19.602Z,24.00
2022-07-25T01:42:47.405Z,24.10
2022-07-25T01:45:15.218Z,24.10
2022-07-25T01:47:43.024Z,24.00
2022-07-25T01:50:11.515Z,24.00
2022-07-25T01:52:39.563Z,24.00
2022-07-25T01:55:09.675Z,23.90
2022-07-25T01:57:40.158Z,23.90
2022-07-25T02:00:11.327Z,23.90
2022-07-25T02:02:39.309Z,23.80
2022-07-25T02:05:07.742Z,23.70
2022-07-25T02:07:35.604Z,23.60
2022-07-25T02:10:03.936Z,23.60
2022-07-25T02:12:33.361Z,23.60
2022-07-25T02:15:01.197Z,23.60
2022-07-25T02:17:29.566Z,23.50
2022-07-25T02:19:57.356Z,23.50
2022-07-25T02:22:25.181Z,23.40
2022-07-25T02:24:52.944Z,23.30
2022-07-25T02:27:20.714Z,23.30
2022-07-25T02:29:49.840Z,23.30
2022-07-25T02:32:17.658Z,23.30
2022-07-25T02:34:45.471Z,23.40
2022-07-25T02:37:13.289Z,23.40
2022-07-25T02:39:41.088Z,23.50
2022-07-25T02:42:09.063Z,23.50
2022-07-25T02:44:36.876Z,23.40
2022-07-25T02:47:06.104Z,23.40
2022-07-25T02:49:34.035Z,23.50
2022-07-25T02:52:01.865Z,23.50
2022-07-25T02:54:29.695Z,23.60
2022-07-25T02:56:57.569Z,23.30
2022-07-25T02:59:25.347Z,23.40
2022-07-25T03:02:00.508Z,23.50
2022-07-25T03:04:30.999Z,23.40
2022-07-25T03:06:58.824Z,23.40
2022-07-25T03:09:26.712Z,23.30
2022-07-25T03:11:54.545Z,23.30
2022-07-25T03:14:22.347Z,23.30
2022-07-25T03:16:50.149Z,23.20
2022-07-25T03:19:18.384Z,23.00
2022-07-25T03:21:47.508Z,23.00
2022-07-25T03:24:15.273Z,23.00
2022-07-25T03:26:43.100Z,23.00
2022-07-25T03:29:10.920Z,23.00
2022-07-25T03:31:38.808Z,23.00
2022-07-25T03:34:07.335Z,23.10
2022-07-25T03:36:35.500Z,23.10
2022-07-25T03:39:05.587Z,23.10
2022-07-25T03:41:33.621Z,23.10
2022-07-25T03:44:01.473Z,23.20
2022-07-25T03:46:29.344Z,23.10
2022-07-25T03:48:57.228Z,23.20
2022-07-25T03:51:25.068Z,23.20
2022-07-25T03:54:05.531Z,23.20
2022-07-25T03:56:40.289Z,23.10
2022-07-25T03:59:13.342Z,23.10
2022-07-25T04:01:42.000Z,23.00
2022-07-25T04:04:10.734Z,23.00
2022-07-25T04:06:39.106Z,23.00
2022-07-25T04:09:08.548Z,23.10
2022-07-25T04:11:38.344Z,23.20
2022-07-25T04:14:07.569Z,23.10
2022-07-25T04:16:36.052Z,23.10
2022-07-25T04:19:05.076Z,23.10
2022-07-25T04:21:34.236Z,23.00
2022-07-25T04:24:02.105Z,23.00
2022-07-25T04:26:29.976Z,22.90
2022-07-25T04:29:02.559Z,22.90
2022-07-25T04:31:30.670Z,22.90
2022-07-25T04:33:58.529Z,22.80
2022-07-25T04:36:26.790Z,22.80
2022-07-25T04:38:54.676Z,22.80
2022-07-25T04:41:22.568Z,22.70
2022-07-25T04:43:50.401Z,22.90
2022-07-25T04:46:23.263Z,22.80
2022-07-25T04:48:52.213Z,22.80
2022-07-25T04:51:20.265Z,22.90
2022-07-25T04:53:48.163Z,22.90
2022-07-25T04:56:16.298Z,22.90
2022-07-25T04:58:44.190Z,23.00
2022-07-25T05:01:12.437Z,23.00
2022-07-25T05:03:41.743Z,23.00
2022-07-25T05:06:18.374Z,23.20
2022-07-25T05:08:46.242Z,23.40
2022-07-25T05:11:14.175Z,23.30
2022-07-25T05:13:41.942Z,23.40
2022-07-25T05:16:10.299Z,23.50
2022-07-25T05:18:38.144Z,23.60
2022-07-25T05:21:10.522Z,23.70
2022-07-25T05:23:38.316Z,23.80
2022-07-25T05:26:06.432Z,23.90
2022-07-25T05:28:34.354Z,24.00
2022-07-25T05:31:02.431Z,24.10
2022-07-25T05:33:30.327Z,24.20
2022-07-25T05:35:58.241Z,24.40
2022-07-25T05:38:27.432Z,24.50
2022-07-25T05:40:55.305Z,24.60
2022-07-25T05:43:23.117Z,24.70
2022-07-25T05:45:50.909Z,24.90
2022-07-25T05:48:18.823Z,25.00
2022-07-25T05:50:46.909Z,25.20
2022-07-25T05:53:14.709Z,25.30
2022-07-25T05:55:43.865Z,25.50
2022-07-25T05:58:11.715Z,25.70
2022-07-25T06:00:39.940Z,25.80
2022-07-25T06:03:07.825Z,25.80
2022-07-25T06:05:35.625Z,25.80
2022-07-25T06:08:03.404Z,25.80
2022-07-25T06:10:31.247Z,25.90
2022-07-25T06:13:01.949Z,25.90
2022-07-25T06:15:29.763Z,26.00
2022-07-25T06:17:58.013Z,26.20
2022-07-25T06:20:27.391Z,26.50
2022-07-25T06:22:55.190Z,26.70
2022-07-25T06:25:23.244Z,26.80
2022-07-25T06:27:51.131Z,26.70
2022-07-25T06:30:20.770Z,26.70
2022-07-25T06:32:48.960Z,26.70
2022-07-25T06:35:16.881Z,26.90
2022-07-25T06:37:44.720Z,27.20
2022-07-25T06:40:12.735Z,27.20
2022-07-25T06:42:41.001Z,27.30
2022-07-25T06:45:10.728Z,27.50
2022-07-25T06:47:40.925Z,27.90
2022-07-25T06:50:11.717Z,28.30
2022-07-25T06:52:39.791Z,28.90
2022-07-25T06:55:09.282Z,29.70
2022-07-25T06:57:37.773Z,30.30
2022-07-25T07:00:09.582Z,30.70
2022-07-25T07:02:47.804Z,30.90
2022-07-25T07:05:15.648Z,30.90
2022-07-25T07:07:47.597Z,30.70
2022-07-25T07:10:16.123Z,31.10
2022-07-25T07:12:44.214Z,31.10
2022-07-25T07:15:13.412Z,31.20
2022-07-25T07:17:42.713Z,31.40
2022-07-25T07:20:11.918Z,31.70
2022-07-25T07:22:46.234Z,31.80
2022-07-25T07:25:16.379Z,32.00
2022-07-25T07:27:45.619Z,32.00
2022-07-25T07:30:14.711Z,32.10
2022-07-25T07:32:44.274Z,31.80
2022-07-25T07:35:16.438Z,31.90
2022-07-25T07:37:44.829Z,31.80
2022-07-25T07:40:17.506Z,32.30
2022-07-25T07:42:48.453Z,33.00
2022-07-25T07:45:17.915Z,33.20
2022-07-25T07:47:48.599Z,33.50
2022-07-25T07:50:17.584Z,33.80
2022-07-25T07:52:45.608Z,34.00
2022-07-25T07:55:31.142Z,33.60
2022-07-25T07:57:59.539Z,34.20
2022-07-25T08:00:30.281Z,34.80
2022-07-25T08:03:00.597Z,34.70
2022-07-25T08:05:30.313Z,34.60
2022-07-25T08:07:58.761Z,34.50
2022-07-25T08:10:29.134Z,34.90
2022-07-25T08:12:57.826Z,35.20
2022-07-25T08:15:25.772Z,35.30
2022-07-25T08:17:53.786Z,35.30
2022-07-25T08:20:39.492Z,35.00
2022-07-25T08:23:07.879Z,34.90
2022-07-25T08:25:36.799Z,34.50
2022-07-25T08:28:07.200Z,35.20
2022-07-25T08:30:36.127Z,35.60
2022-07-25T08:33:06.506Z,36.10
2022-07-25T08:35:36.060Z,36.20
2022-07-25T08:38:06.116Z,35.90
2022-07-25T08:40:35.505Z,36.30
2022-07-25T08:43:05.599Z,36.90
2022-07-25T08:45:34.475Z,37.00
2022-07-25T08:48:02.312Z,36.70
2022-07-25T08:50:30.964Z,36.90
2022-07-25T08:53:30.326Z,37.00
2022-07-25T08:55:48.348Z,37.10
2022-07-25T08:58:17.504Z,37.10
2022-07-25T09:00:46.611Z,37.20
2022-07-25T09:03:14.587Z,37.50
2022-07-25T09:05:43.883Z,37.00
2022-07-25T09:08:14.537Z,37.00
2022-07-25T09:10:47.670Z,37.60
2022-07-25T09:13:16.162Z,37.80
2022-07-25T09:15:47.851Z,37.30
2022-07-25T09:18:20.072Z,37.60
2022-07-25T09:20:50.422Z,38.10
2022-07-25T09:23:31.307Z,38.30
2022-07-25T09:26:07.232Z,38.60
2022-07-25T09:28:42.295Z,38.70
2022-07-25T09:31:10.650Z,38.70
2022-07-25T09:33:46.719Z,38.80
2022-07-25T09:36:15.128Z,39.50
2022-07-25T09:38:54.104Z,39.80
2022-07-25T09:41:22.400Z,39.80
2022-07-25T09:43:50.326Z,39.80
2022-07-25T09:46:18.198Z,39.80
2022-07-25T09:48:46.449Z,40.30
2022-07-25T09:51:14.641Z,40.20
2022-07-25T09:53:42.560Z,39.70
2022-07-25T09:56:11.683Z,38.90
2022-07-25T09:58:40.746Z,39.20
2022-07-25T10:01:09.244Z,39.60
2022-07-25T10:03:49.139Z,39.50
2022-07-25T10:06:22.853Z,40.00
2022-07-25T10:08:51.993Z,40.30
2022-07-25T10:11:22.769Z,40.00
2022-07-25T10:13:51.242Z,40.20
2022-07-25T10:16:21.666Z,40.10
2022-07-25T10:18:51.938Z,40.00
2022-07-25T10:21:27.026Z,39.70
2022-07-25T10:24:00.279Z,39.50
2022-07-25T10:26:29.845Z,38.80
2022-07-25T10:28:58.367Z,38.70
2022-07-25T10:31:34.776Z,37.90
2022-07-25T10:34:05.666Z,37.20
2022-07-25T10:36:43.543Z,36.70
2022-07-25T10:39:13.884Z,36.70
2022-07-25T10:41:44.839Z,36.70
2022-07-25T10:44:14.355Z,36.60
2022-07-25T10:46:44.493Z,36.50
2022-07-25T10:49:19.470Z,36.30
2022-07-25T10:51:56.192Z,35.80
2022-07-25T10:54:24.222Z,35.90
2022-07-25T10:56:56.016Z,36.40
2022-07-25T10:59:32.438Z,36.80
2022-07-25T11:02:00.470Z,37.00
2022-07-25T11:04:28.635Z,37.10
2022-07-25T11:06:56.463Z,37.00
2022-07-25T11:09:27.737Z,37.00
2022-07-25T11:11:58.385Z,36.70
2022-07-25T11:14:31.080Z,36.30
2022-07-25T11:16:59.459Z,36.00
2022-07-25T11:19:28.909Z,35.70
2022-07-25T11:21:58.649Z,35.50
2022-07-25T11:24:36.749Z,35.50
2022-07-25T11:27:11.326Z,35.60
2022-07-25T11:29:41.626Z,35.70
2022-07-25T11:32:10.667Z,35.60
2022-07-25T11:34:41.192Z,35.30
2022-07-25T11:37:10.993Z,35.20
2022-07-25T11:39:41.663Z,35.10
2022-07-25T11:42:12.365Z,35.00
2022-07-25T11:44:47.468Z,35.10
2022-07-25T11:47:25.921Z,35.10
2022-07-25T11:49:55.119Z,35.10
2022-07-25T11:52:25.167Z,35.10
2022-07-25T11:54:57.910Z,35.30
2022-07-25T11:57:29.044Z,35.90
2022-07-25T11:59:57.679Z,36.00
2022-07-25T12:02:26.582Z,36.00
2022-07-25T12:04:55.871Z,36.30
2022-07-25T12:07:23.742Z,36.80
2022-07-25T12:09:57.915Z,37.00
2022-07-25T12:12:27.028Z,37.10
2022-07-25T12:14:54.813Z,36.70
2022-07-25T12:17:22.611Z,36.50
2022-07-25T12:19:50.497Z,36.30
2022-07-25T12:22:18.322Z,36.30
2022-07-25T12:24:46.355Z,36.60
2022-07-25T12:27:14.164Z,36.60
2022-07-25T12:29:43.329Z,36.60
2022-07-25T12:32:11.116Z,36.40
2022-07-25T12:34:38.940Z,36.40
2022-07-25T12:37:07.077Z,36.30
2022-07-25T12:39:34.983Z,36.10
2022-07-25T12:42:02.797Z,35.80
2022-07-25T12:44:30.590Z,35.70
2022-07-25T12:46:59.852Z,35.90
2022-07-25T12:49:27.692Z,36.00
2022-07-25T12:51:58.178Z,36.10
2022-07-25T12:54:26.158Z,36.60
2022-07-25T12:56:54.156Z,36.80
2022-07-25T12:59:22.001Z,36.80
2022-07-25T13:01:49.957Z,36.70
2022-07-25T13:04:19.110Z,36.90
2022-07-25T13:06:46.973Z,36.50
2022-07-25T13:09:14.803Z,36.10
2022-07-25T13:11:43.254Z,36.00
2022-07-25T13:14:11.188Z,36.00
2022-07-25T13:16:39.152Z,36.00
2022-07-25T13:19:07.515Z,36.00
2022-07-25T13:21:38.145Z,35.80
2022-07-25T13:24:08.033Z,35.50
2022-07-25T13:26:36.553Z,35.20
2022-07-25T13:29:08.497Z,34.90
2022-07-25T13:31:38.199Z,34.70
2022-07-25T13:34:06.569Z,34.50
2022-07-25T13:36:34.721Z,34.60
2022-07-25T13:39:04.723Z,34.60
2022-07-25T13:41:33.097Z,34.70
2022-07-25T13:44:00.933Z,34.80
2022-07-25T13:46:28.737Z,34.90
2022-07-25T13:48:56.955Z,34.80
2022-07-25T13:51:24.863Z,34.80
2022-07-25T13:53:52.719Z,34.80
2022-07-25T13:56:21.863Z,34.80
2022-07-25T13:58:49.620Z,34.80
2022-07-25T14:01:17.544Z,34.60
2022-07-25T14:03:45.724Z,34.50
2022-07-25T14:06:13.679Z,34.20
2022-07-25T14:08:41.922Z,34.00
2022-07-25T14:11:09.667Z,33.80
2022-07-25T14:13:38.921Z,33.70
2022-07-25T14:16:07.253Z,33.80
2022-07-25T14:18:35.137Z,33.80
2022-07-25T14:21:02.939Z,33.90
2022-07-25T14:23:30.803Z,33.70
2022-07-25T14:25:59.392Z,31.20
2022-07-25T14:28:27.580Z,30.00
2022-07-25T14:30:56.781Z,30.00
2022-07-25T14:33:24.693Z,30.30
2022-07-25T14:35:52.606Z,30.50
2022-07-25T14:38:20.368Z,30.90
2022-07-25T14:40:48.170Z,31.40
2022-07-25T14:43:15.950Z,31.70
2022-07-25T14:45:43.857Z,32.00
2022-07-25T14:48:12.973Z,32.30
2022-07-25T14:50:40.813Z,32.40
2022-07-25T14:53:08.616Z,32.70
2022-07-25T14:55:37.812Z,32.70
2022-07-25T14:58:05.994Z,32.70
2022-07-25T15:00:34.107Z,32.70
2022-07-25T15:03:02.228Z,32.90
2022-07-25T15:05:31.416Z,33.10
2022-07-25T15:07:59.145Z,33.50
2022-07-25T15:10:27.069Z,33.50
2022-07-25T15:13:20.590Z,33.60
2022-07-25T15:15:42.729Z,33.70
2022-07-25T15:18:13.774Z,33.80
2022-07-25T15:20:43.335Z,33.90
2022-07-25T15:23:11.132Z,34.00
2022-07-25T15:26:01.349Z,34.10
2022-07-25T15:28:27.892Z,34.00
2022-07-25T15:30:55.866Z,34.10
2022-07-25T15:33:23.829Z,34.20
2022-07-25T15:35:53.288Z,34.20
2022-07-25T15:38:21.182Z,34.20
2022-07-25T15:40:49.062Z,34.10
2022-07-25T15:43:16.865Z,34.30
2022-07-25T15:45:45.929Z,34.60
2022-07-25T15:48:15.170Z,34.50
2022-07-25T15:50:44.712Z,34.60
2022-07-25T15:53:14.432Z,34.30
2022-07-25T15:55:43.360Z,34.20
2022-07-25T15:58:12.083Z,34.20
2022-07-25T16:00:41.212Z,34.20
2022-07-25T16:03:09.932Z,34.20
2022-07-25T16:05:39.522Z,34.10
2022-07-25T16:08:09.776Z,33.90
2022-07-25T16:10:39.321Z,33.70
2022-07-25T16:13:07.428Z,33.60
2022-07-25T16:15:35.577Z,33.50
2022-07-25T16:18:03.471Z,33.30
2022-07-25T16:20:32.538Z,33.30
2022-07-25T16:23:00.810Z,33.30
2022-07-25T16:25:29.682Z,33.30
2022-07-25T16:28:00.149Z,33.10
2022-07-25T16:30:28.307Z,33.00
2022-07-25T16:32:56.253Z,33.00
2022-07-25T16:35:24.334Z,33.10
2022-07-25T16:37:52.940Z,33.20
2022-07-25T16:40:21.397Z,33.40
2022-07-25T16:42:50.449Z,33.30
2022-07-25T16:45:19.622Z,33.20
2022-07-25T16:47:47.533Z,33.20
2022-07-25T16:50:15.329Z,33.10
2022-07-25T16:52:43.264Z,33.00
2022-07-25T16:55:11.257Z,32.80
2022-07-25T16:57:39.505Z,32.50
2022-07-25T17:00:09.275Z,32.40
2022-07-25T17:02:39.654Z,32.10
2022-07-25T17:05:08.002Z,32.00
2022-07-25T17:07:35.858Z,31.80
2022-07-25T17:10:03.921Z,31.70
2022-07-25T17:12:31.836Z,31.60
2022-07-25T17:14:59.636Z,31.40
2022-07-25T17:17:27.442Z,31.30
2022-07-25T17:20:00.040Z,31.40
2022-07-25T17:22:28.267Z,31.40
2022-07-25T17:24:56.120Z,31.30
2022-07-25T17:27:24.090Z,31.20
2022-07-25T17:29:51.909Z,31.10
2022-07-25T17:32:19.777Z,31.00
2022-07-25T17:34:47.608Z,31.10
2022-07-25T17:37:16.875Z,31.00
2022-07-25T17:39:44.694Z,30.80
2022-07-25T17:42:12.522Z,30.70
2022-07-25T17:44:40.296Z,30.70
2022-07-25T17:47:08.132Z,30.60
2022-07-25T17:49:35.988Z,30.50
2022-07-25T17:52:03.896Z,30.50
2022-07-25T17:54:33.086Z,30.50
2022-07-25T17:57:00.816Z,30.40
2022-07-25T17:59:28.587Z,30.40
2022-07-25T18:01:56.520Z,30.40
2022-07-25T18:04:24.386Z,30.40
2022-07-25T18:06:52.249Z,30.30
2022-07-25T18:09:21.109Z,30.20
2022-07-25T18:11:50.345Z,30.20
2022-07-25T18:14:18.284Z,30.10
2022-07-25T18:16:46.230Z,30.10
2022-07-25T18:19:14.386Z,30.00
2022-07-25T18:21:42.219Z,30.00
2022-07-25T18:24:10.374Z,30.00
2022-07-25T18:26:39.349Z,30.00
2022-07-25T18:29:09.514Z,29.80
2022-07-25T18:31:37.325Z,29.70
2022-07-25T18:34:05.746Z,29.70
2022-07-25T18:36:35.134Z,29.60
2022-07-25T18:39:02.978Z,29.60
2022-07-25T18:41:30.967Z,29.60
2022-07-25T18:43:59.066Z,29.40
2022-07-25T18:46:32.657Z,29.50
2022-07-25T18:49:01.897Z,29.50
2022-07-25T18:51:29.698Z,29.30
2022-07-25T18:53:57.844Z,29.30
2022-07-25T18:56:25.721Z,29.20
2022-07-25T18:58:53.567Z,29.20
2022-07-25T19:01:21.431Z,29.20
2022-07-25T19:03:50.749Z,29.20
2022-07-25T19:06:18.657Z,29.20
2022-07-25T19:08:47.816Z,29.10
2022-07-25T19:11:15.744Z,29.00
2022-07-25T19:13:51.351Z,29.00
2022-07-25T19:16:20.503Z,29.00
2022-07-25T19:18:50.512Z,29.00
2022-07-25T19:21:18.433Z,28.90
2022-07-25T19:23:50.774Z,28.90
2022-07-25T19:26:19.171Z,28.80
2022-07-25T19:28:47.099Z,28.80
2022-07-25T19:31:15.116Z,28.70
2022-07-25T19:33:45.414Z,28.70
2022-07-25T19:36:15.034Z,28.60
2022-07-25T19:38:42.973Z,28.50
2022-07-25T19:41:10.937Z,28.40
2022-07-25T19:43:38.724Z,28.40
2022-07-25T19:46:06.744Z,28.30
2022-07-25T19:48:34.708Z,28.30
2022-07-25T19:51:02.758Z,28.30
2022-07-25T19:53:32.422Z,28.30
2022-07-25T19:56:01.201Z,28.20
2022-07-25T19:58:29.348Z,28.20
2022-07-25T20:00:57.280Z,28.10
2022-07-25T20:03:25.100Z,28.00
2022-07-25T20:05:53.351Z,28.00
2022-07-25T20:08:21.117Z,28.00
2022-07-25T20:10:50.292Z,28.00
2022-07-25T20:13:18.058Z,27.90
2022-07-25T20:15:45.865Z,27.90
2022-07-25T20:18:18.958Z,27.80
2022-07-25T20:20:47.840Z,28.00
2022-07-25T20:23:15.736Z,27.90
2022-07-25T20:25:43.537Z,27.90
2022-07-25T20:28:12.753Z,27.80
2022-07-25T20:30:40.785Z,27.70
2022-07-25T20:33:09.886Z,27.60
2022-07-25T20:35:38.044Z,27.50
2022-07-25T20:38:09.691Z,27.40
2022-07-25T20:40:38.879Z,27.40
2022-07-25T20:43:09.028Z,27.30
2022-07-25T20:45:38.635Z,27.30
2022-07-25T20:48:07.100Z,27.30
2022-07-25T20:50:37.844Z,27.00
2022-07-25T20:53:05.995Z,27.20
2022-07-25T20:55:34.391Z,27.20
2022-07-25T20:58:03.228Z,27.20
2022-07-25T21:00:31.518Z,27.20
2022-07-25T21:03:01.877Z,27.20
2022-07-25T21:05:29.855Z,27.40
2022-07-25T21:07:58.000Z,27.10
2022-07-25T21:10:26.366Z,27.00
2022-07-25T21:12:55.796Z,27.00
2022-07-25T21:15:24.552Z,26.90
2022-07-25T21:17:52.709Z,26.80
2022-07-25T21:20:21.808Z,26.90
2022-07-25T21:22:49.677Z,26.90
2022-07-25T21:25:17.747Z,26.90
2022-07-25T21:27:45.557Z,26.80
2022-07-25T21:30:14.015Z,26.90
2022-07-25T21:32:42.743Z,26.90
2022-07-25T21:35:11.507Z,26.80
2022-07-25T21:37:40.873Z,26.80
2022-07-25T21:40:09.932Z,26.80
2022-07-25T21:42:38.164Z,26.70
2022-07-25T21:45:07.375Z,26.70
2022-07-25T21:47:35.478Z,26.70
2022-07-25T21:50:25.012Z,26.70
2022-07-25T21:52:55.168Z,26.60
2022-07-25T21:55:23.425Z,26.70
2022-07-25T21:57:52.177Z,26.70
2022-07-25T22:00:20.645Z,26.70
2022-07-25T22:02:49.038Z,26.70
2022-07-25T22:05:18.830Z,26.70
2022-07-25T22:07:47.130Z,26.60
2022-07-25T22:10:18.369Z,26.50
2022-07-25T22:12:46.399Z,26.50
2022-07-25T22:15:16.230Z,26.50
2022-07-25T22:17:48.642Z,26.50
2022-07-25T22:20:18.595Z,26.50
2022-07-25T22:22:46.830Z,26.40
2022-07-25T22:25:16.282Z,26.50
2022-07-25T22:27:44.153Z,26.50
2022-07-25T22:30:18.518Z,26.40
2022-07-25T22:32:47.299Z,26.40
2022-07-25T22:35:15.496Z,26.40
2022-07-25T22:37:43.955Z,26.40
2022-07-25T22:40:12.691Z,26.30
2022-07-25T22:42:42.115Z,26.30
2022-07-25T22:45:10.824Z,26.20
2022-07-25T22:47:38.706Z,26.20
2022-07-25T22:50:08.236Z,26.10
2022-07-25T22:52:36.057Z,26.20
2022-07-25T22:55:04.058Z,26.10
2022-07-25T22:57:36.785Z,26.10
2022-07-25T23:00:09.670Z,26.10
2022-07-25T23:02:37.512Z,26.10
2022-07-25T23:05:06.129Z,26.20
2022-07-25T23:07:34.388Z,26.20
2022-07-25T23:10:03.130Z,26.30
2022-07-25T23:12:30.933Z,26.20
2022-07-25T23:14:58.739Z,26.30
2022-07-25T23:17:27.890Z,26.30
2022-07-25T23:19:57.088Z,26.30
2022-07-25T23:22:26.786Z,26.30
2022-07-25T23:24:54.861Z,26.30
2022-07-25T23:27:23.239Z,26.20
2022-07-25T23:29:51.060Z,26.20
2022-07-25T23:32:19.154Z,26.20
2022-07-25T23:34:48.343Z,26.20
2022-07-25T23:37:16.145Z,26.20
2022-07-25T23:39:43.933Z,26.30
2022-07-25T23:42:11.709Z,26.30
2022-07-25T23:44:39.489Z,26.20
2022-07-25T23:47:09.455Z,26.10
2022-07-25T23:49:38.683Z,26.20
2022-07-25T23:52:07.944Z,26.30
2022-07-25T23:54:35.813Z,26.30
2022-07-25T23:57:03.649Z,26.20
2022-07-25T23:59:31.571Z,26.20
